sensor_id;sensor_type;location;lat;lon;timestamp;pressure;altitude;pressure_sealevel;temperature;humidity
46756;BME280;32506;52.826;-1.192;2024-03-08T00:00:21;101061.78;;;5.88;64.01
46756;BME280;32506;52.826;-1.192;2024-03-08T00:02:48;101060.13;;;5.87;64.21
46756;BME280;32506;52.826;-1.192;2024-03-08T00:05:17;101063.59;;;5.88;64.05
46756;BME280;32506;52.826;-1.192;2024-03-08T00:07:43;101058.47;;;5.86;64.33
46756;BME280;32506;52.826;-1.192;2024-03-08T00:10:13;101059.44;;;5.85;63.65
46756;BME280;32506;52.826;-1.192;2024-03-08T00:12:40;101054.13;;;5.85;63.92
46756;BME280;32506;52.826;-1.192;2024-03-08T00:15:16;101047.38;;;5.83;64.50
46756;BME280;32506;52.826;-1.192;2024-03-08T00:17:45;101046.53;;;5.82;64.04
46756;BME280;32506;52.826;-1.192;2024-03-08T00:20:11;101050.19;;;5.81;64.12
46756;BME280;32506;52.826;-1.192;2024-03-08T00:22:37;101039.75;;;5.80;64.21
46756;BME280;32506;52.826;-1.192;2024-03-08T00:25:04;101038.06;;;5.79;64.51
46756;BME280;32506;52.826;-1.192;2024-03-08T00:27:30;101029.47;;;5.77;64.39
46756;BME280;32506;52.826;-1.192;2024-03-08T00:29:59;101030.47;;;5.76;64.38
46756;BME280;32506;52.826;-1.192;2024-03-08T00:32:30;101028.81;;;5.75;64.37
46756;BME280;32506;52.826;-1.192;2024-03-08T00:34:57;101022.84;;;5.72;64.88
46756;BME280;32506;52.826;-1.192;2024-03-08T00:37:22;101024.69;;;5.72;64.41
46756;BME280;32506;52.826;-1.192;2024-03-08T00:39:55;101013.41;;;5.70;64.33
46756;BME280;32506;52.826;-1.192;2024-03-08T00:42:21;101005.47;;;5.70;64.66
46756;BME280;32506;52.826;-1.192;2024-03-08T00:44:47;101011.75;;;5.69;64.71
46756;BME280;32506;52.826;-1.192;2024-03-08T00:47:18;101010.94;;;5.68;64.43
46756;BME280;32506;52.826;-1.192;2024-03-08T00:49:44;101002.97;;;5.68;65.41
46756;BME280;32506;52.826;-1.192;2024-03-08T00:52:09;100992.53;;;5.67;65.25
46756;BME280;32506;52.826;-1.192;2024-03-08T00:54:35;100996.19;;;5.66;65.24
46756;BME280;32506;52.826;-1.192;2024-03-08T00:57:01;100998.84;;;5.66;64.57
46756;BME280;32506;52.826;-1.192;2024-03-08T00:59:31;100987.41;;;5.65;65.42
46756;BME280;32506;52.826;-1.192;2024-03-08T01:01:58;100986.56;;;5.65;65.37
46756;BME280;32506;52.826;-1.192;2024-03-08T01:04:25;100980.44;;;5.64;65.17
46756;BME280;32506;52.826;-1.192;2024-03-08T01:06:57;100982.25;;;5.64;65.08
46756;BME280;32506;52.826;-1.192;2024-03-08T01:09:24;100977.97;;;5.63;65.41
46756;BME280;32506;52.826;-1.192;2024-03-08T01:11:52;100970.84;;;5.63;65.09
46756;BME280;32506;52.826;-1.192;2024-03-08T01:14:20;100969.16;;;5.62;65.53
46756;BME280;32506;52.826;-1.192;2024-03-08T01:16:50;100971.81;;;5.62;65.28
46756;BME280;32506;52.826;-1.192;2024-03-08T01:19:16;100970.03;;;5.63;65.90
46756;BME280;32506;52.826;-1.192;2024-03-08T01:21:52;100964.72;;;5.63;65.74
46756;BME280;32506;52.826;-1.192;2024-03-08T01:24:26;100959.41;;;5.63;65.90
46756;BME280;32506;52.826;-1.192;2024-03-08T01:26:52;100953.25;;;5.62;65.36
46756;BME280;32506;52.826;-1.192;2024-03-08T01:29:20;100951.59;;;5.61;65.21
46756;BME280;32506;52.826;-1.192;2024-03-08T01:31:49;100946.16;;;5.63;65.36
46756;BME280;32506;52.826;-1.192;2024-03-08T01:34:14;100946.16;;;5.63;65.07
46756;BME280;32506;52.826;-1.192;2024-03-08T01:36:40;100945.31;;;5.62;65.31
46756;BME280;32506;52.826;-1.192;2024-03-08T01:39:06;100940.84;;;5.63;65.92
46756;BME280;32506;52.826;-1.192;2024-03-08T01:41:34;100934.69;;;5.62;66.20
46756;BME280;32506;52.826;-1.192;2024-03-08T01:44:00;100936.34;;;5.63;65.55
46756;BME280;32506;52.826;-1.192;2024-03-08T01:46:25;100924.75;;;5.64;65.62
46756;BME280;32506;52.826;-1.192;2024-03-08T01:48:54;100924.75;;;5.64;65.66
46756;BME280;32506;52.826;-1.192;2024-03-08T01:51:23;100923.91;;;5.64;65.77
46756;BME280;32506;52.826;-1.192;2024-03-08T01:53:49;100913.31;;;5.64;66.19
46756;BME280;32506;52.826;-1.192;2024-03-08T01:56:17;100908.84;;;5.64;65.77
46756;BME280;32506;52.826;-1.192;2024-03-08T01:58:45;100908.69;;;5.66;65.76
46756;BME280;32506;52.826;-1.192;2024-03-08T02:01:15;100908.69;;;5.66;66.17
46756;BME280;32506;52.826;-1.192;2024-03-08T02:03:41;100901.53;;;5.66;65.81
46756;BME280;32506;52.826;-1.192;2024-03-08T02:06:11;100891.94;;;5.65;66.08
46756;BME280;32506;52.826;-1.192;2024-03-08T02:08:41;100892.75;;;5.66;66.04
46756;BME280;32506;52.826;-1.192;2024-03-08T02:11:07;100890.94;;;5.66;66.20
46756;BME280;32506;52.826;-1.192;2024-03-08T02:13:40;100884.63;;;5.67;66.42
46756;BME280;32506;52.826;-1.192;2024-03-08T02:16:07;100888.09;;;5.68;66.41
46756;BME280;32506;52.826;-1.192;2024-03-08T02:18:33;100878.34;;;5.68;66.64
46756;BME280;32506;52.826;-1.192;2024-03-08T02:21:06;100881.81;;;5.69;66.02
46756;BME280;32506;52.826;-1.192;2024-03-08T02:23:33;100880.81;;;5.70;66.27
46756;BME280;32506;52.826;-1.192;2024-03-08T02:26:04;100885.13;;;5.71;66.65
46756;BME280;32506;52.826;-1.192;2024-03-08T02:28:30;100880.63;;;5.71;66.84
46756;BME280;32506;52.826;-1.192;2024-03-08T02:30:56;100870.03;;;5.71;66.64
46756;BME280;32506;52.826;-1.192;2024-03-08T02:33:22;100859.22;;;5.73;66.86
46756;BME280;32506;52.826;-1.192;2024-03-08T02:35:49;100867.19;;;5.73;66.29
46756;BME280;32506;52.826;-1.192;2024-03-08T02:38:16;100854.78;;;5.74;66.25
46756;BME280;32506;52.826;-1.192;2024-03-08T02:40:46;100853.75;;;5.75;66.15
46756;BME280;32506;52.826;-1.192;2024-03-08T02:43:19;100840.50;;;5.75;66.71
46756;BME280;32506;52.826;-1.192;2024-03-08T02:45:45;100845.78;;;5.75;66.29
46756;BME280;32506;52.826;-1.192;2024-03-08T02:48:12;100838.69;;;5.75;66.86
46756;BME280;32506;52.826;-1.192;2024-03-08T02:50:47;100835.84;;;5.77;66.57
46756;BME280;32506;52.826;-1.192;2024-03-08T02:53:15;100828.72;;;5.77;66.81
46756;BME280;32506;52.826;-1.192;2024-03-08T02:55:45;100819.75;;;5.78;66.71
46756;BME280;32506;52.826;-1.192;2024-03-08T02:58:10;100818.09;;;5.77;66.93
46756;BME280;32506;52.826;-1.192;2024-03-08T03:00:36;100815.25;;;5.79;66.64
46756;BME280;32506;52.826;-1.192;2024-03-08T03:03:04;100809.97;;;5.79;66.71
46756;BME280;32506;52.826;-1.192;2024-03-08T03:05:35;100811.63;;;5.80;66.65
46756;BME280;32506;52.826;-1.192;2024-03-08T03:08:03;100813.47;;;5.79;66.65
46756;BME280;32506;52.826;-1.192;2024-03-08T03:10:37;100806.13;;;5.81;66.95
46756;BME280;32506;52.826;-1.192;2024-03-08T03:13:03;100802.66;;;5.81;67.52
46756;BME280;32506;52.826;-1.192;2024-03-08T03:15:29;100796.56;;;5.80;66.77
46756;BME280;32506;52.826;-1.192;2024-03-08T03:17:57;100800.69;;;5.83;66.64
46756;BME280;32506;52.826;-1.192;2024-03-08T03:20:25;100792.88;;;5.81;67.09
46756;BME280;32506;52.826;-1.192;2024-03-08T03:22:57;100785.75;;;5.82;67.06
46756;BME280;32506;52.826;-1.192;2024-03-08T03:25:23;100792.53;;;5.84;66.90
46756;BME280;32506;52.826;-1.192;2024-03-08T03:27:54;100785.56;;;5.83;66.96
46756;BME280;32506;52.826;-1.192;2024-03-08T03:30:25;100788.06;;;5.85;66.87
46756;BME280;32506;52.826;-1.192;2024-03-08T03:32:52;100774.78;;;5.85;66.71
46756;BME280;32506;52.826;-1.192;2024-03-08T03:35:22;100771.31;;;5.84;66.79
46756;BME280;32506;52.826;-1.192;2024-03-08T03:37:48;100778.25;;;5.85;66.98
46756;BME280;32506;52.826;-1.192;2024-03-08T03:40:30;100770.28;;;5.85;66.95
46756;BME280;32506;52.826;-1.192;2024-03-08T03:42:56;100773.78;;;5.86;66.53
46756;BME280;32506;52.826;-1.192;2024-03-08T03:45:23;100774.59;;;5.86;66.84
46756;BME280;32506;52.826;-1.192;2024-03-08T03:47:48;100776.25;;;5.87;66.90
46756;BME280;32506;52.826;-1.192;2024-03-08T03:50:14;100769.31;;;5.86;66.98
46756;BME280;32506;52.826;-1.192;2024-03-08T03:52:45;100760.34;;;5.87;67.54
46756;BME280;32506;52.826;-1.192;2024-03-08T03:55:18;100763.81;;;5.88;66.97
46756;BME280;32506;52.826;-1.192;2024-03-08T03:57:47;100758.69;;;5.86;67.42
46756;BME280;32506;52.826;-1.192;2024-03-08T04:00:15;100767.13;;;5.90;66.95
46756;BME280;32506;52.826;-1.192;2024-03-08T04:02:41;100756.69;;;5.88;67.08
46756;BME280;32506;52.826;-1.192;2024-03-08T04:05:07;100753.06;;;5.90;67.11
46756;BME280;32506;52.826;-1.192;2024-03-08T04:07:37;100758.50;;;5.88;66.90
46756;BME280;32506;52.826;-1.192;2024-03-08T04:10:04;100751.22;;;5.90;66.88
46756;BME280;32506;52.826;-1.192;2024-03-08T04:12:36;100745.91;;;5.90;66.73
46756;BME280;32506;52.826;-1.192;2024-03-08T04:15:02;100746.72;;;5.91;67.11
46756;BME280;32506;52.826;-1.192;2024-03-08T04:17:28;100747.56;;;5.91;67.49
46756;BME280;32506;52.826;-1.192;2024-03-08T04:19:56;100748.38;;;5.92;67.00
46756;BME280;32506;52.826;-1.192;2024-03-08T04:22:22;100739.59;;;5.91;67.32
46756;BME280;32506;52.826;-1.192;2024-03-08T04:24:50;100743.06;;;5.92;66.89
46756;BME280;32506;52.826;-1.192;2024-03-08T04:27:16;100734.13;;;5.93;67.00
46756;BME280;32506;52.826;-1.192;2024-03-08T04:29:41;100737.59;;;5.93;66.69
46756;BME280;32506;52.826;-1.192;2024-03-08T04:32:10;100734.13;;;5.93;66.92
46756;BME280;32506;52.826;-1.192;2024-03-08T04:34:38;100729.63;;;5.93;67.42
46756;BME280;32506;52.826;-1.192;2024-03-08T04:37:04;100726.16;;;5.93;66.96
46756;BME280;32506;52.826;-1.192;2024-03-08T04:39:30;100734.75;;;5.95;67.16
46756;BME280;32506;52.826;-1.192;2024-03-08T04:42:04;100728.63;;;5.94;66.89
46756;BME280;32506;52.826;-1.192;2024-03-08T04:44:36;100730.28;;;5.95;66.90
46756;BME280;32506;52.826;-1.192;2024-03-08T04:47:03;100720.66;;;5.94;67.06
46756;BME280;32506;52.826;-1.192;2024-03-08T04:49:35;100711.91;;;5.94;66.70
46756;BME280;32506;52.826;-1.192;2024-03-08T04:52:04;100717.03;;;5.95;66.62
46756;BME280;32506;52.826;-1.192;2024-03-08T04:54:30;100716.19;;;5.95;66.70
46756;BME280;32506;52.826;-1.192;2024-03-08T04:56:56;100712.53;;;5.96;66.78
46756;BME280;32506;52.826;-1.192;2024-03-08T04:59:22;100718.00;;;5.94;66.87
46756;BME280;32506;52.826;-1.192;2024-03-08T05:01:49;100719.66;;;5.95;66.63
46756;BME280;32506;52.826;-1.192;2024-03-08T05:04:14;100717.84;;;5.96;67.04
46756;BME280;32506;52.826;-1.192;2024-03-08T05:06:40;100716.19;;;5.95;66.63
46756;BME280;32506;52.826;-1.192;2024-03-08T05:09:06;100709.06;;;5.95;67.08
46756;BME280;32506;52.826;-1.192;2024-03-08T05:11:42;100711.53;;;5.97;67.03
46756;BME280;32506;52.826;-1.192;2024-03-08T05:14:08;100707.41;;;5.94;66.98
46756;BME280;32506;52.826;-1.192;2024-03-08T05:16:34;100701.28;;;5.94;66.50
46756;BME280;32506;52.826;-1.192;2024-03-08T05:19:00;100701.28;;;5.94;66.67
46756;BME280;32506;52.826;-1.192;2024-03-08T05:21:25;100703.09;;;5.93;66.60
46756;BME280;32506;52.826;-1.192;2024-03-08T05:23:51;100700.44;;;5.93;66.33
46756;BME280;32506;52.826;-1.192;2024-03-08T05:26:20;100703.94;;;5.94;66.63
46756;BME280;32506;52.826;-1.192;2024-03-08T05:28:47;100695.97;;;5.94;66.90
46756;BME280;32506;52.826;-1.192;2024-03-08T05:31:47;100697.59;;;5.95;66.59
46756;BME280;32506;52.826;-1.192;2024-03-08T05:34:13;100692.47;;;5.93;66.45
46756;BME280;32506;52.826;-1.192;2024-03-08T05:36:43;100695.97;;;5.94;66.67
46756;BME280;32506;52.826;-1.192;2024-03-08T05:39:11;100685.53;;;5.92;66.10
46756;BME280;32506;52.826;-1.192;2024-03-08T05:41:38;100693.47;;;5.92;66.28
46756;BME280;32506;52.826;-1.192;2024-03-08T05:44:04;100684.72;;;5.92;67.22
46756;BME280;32506;52.826;-1.192;2024-03-08T05:46:33;100689.19;;;5.91;66.91
46756;BME280;32506;52.826;-1.192;2024-03-08T05:48:59;100688.34;;;5.91;66.85
46756;BME280;32506;52.826;-1.192;2024-03-08T05:51:25;100686.53;;;5.91;66.30
46756;BME280;32506;52.826;-1.192;2024-03-08T05:53:53;100686.53;;;5.91;66.05
46756;BME280;32506;52.826;-1.192;2024-03-08T05:56:25;100683.06;;;5.91;66.96
46756;BME280;32506;52.826;-1.192;2024-03-08T05:58:50;100689.19;;;5.91;66.33
46756;BME280;32506;52.826;-1.192;2024-03-08T06:01:16;100676.94;;;5.90;66.42
46756;BME280;32506;52.826;-1.192;2024-03-08T06:03:41;100681.25;;;5.91;66.46
46756;BME280;32506;52.826;-1.192;2024-03-08T06:06:14;100674.28;;;5.90;66.32
46756;BME280;32506;52.826;-1.192;2024-03-08T06:08:40;100663.66;;;5.90;66.45
46756;BME280;32506;52.826;-1.192;2024-03-08T06:11:11;100657.72;;;5.88;66.83
46756;BME280;32506;52.826;-1.192;2024-03-08T06:13:36;100665.50;;;5.90;66.44
46756;BME280;32506;52.826;-1.192;2024-03-08T06:16:02;100654.25;;;5.87;66.61
46756;BME280;32506;52.826;-1.192;2024-03-08T06:18:35;100668.16;;;5.90;66.40
46756;BME280;32506;52.826;-1.192;2024-03-08T06:21:07;100656.88;;;5.87;66.80
46756;BME280;32506;52.826;-1.192;2024-03-08T06:23:44;100652.41;;;5.88;66.55
46756;BME280;32506;52.826;-1.192;2024-03-08T06:26:10;100660.34;;;5.88;66.86
46756;BME280;32506;52.826;-1.192;2024-03-08T06:28:35;100646.28;;;5.87;66.41
46756;BME280;32506;52.826;-1.192;2024-03-08T06:31:02;100647.09;;;5.88;66.41
46756;BME280;32506;52.826;-1.192;2024-03-08T06:33:28;100643.63;;;5.87;66.60
46756;BME280;32506;52.826;-1.192;2024-03-08T06:35:54;100642.81;;;5.87;67.02
46756;BME280;32506;52.826;-1.192;2024-03-08T06:38:25;100640.97;;;5.87;66.80
46756;BME280;32506;52.826;-1.192;2024-03-08T06:40:54;100629.56;;;5.87;67.11
46756;BME280;32506;52.826;-1.192;2024-03-08T06:43:20;100635.66;;;5.87;67.14
46756;BME280;32506;52.826;-1.192;2024-03-08T06:46:07;100628.53;;;5.88;67.08
46756;BME280;32506;52.826;-1.192;2024-03-08T06:48:35;100623.22;;;5.88;66.69
46756;BME280;32506;52.826;-1.192;2024-03-08T06:51:06;100617.09;;;5.87;67.44
46756;BME280;32506;52.826;-1.192;2024-03-08T06:53:32;100625.88;;;5.88;67.14
46756;BME280;32506;52.826;-1.192;2024-03-08T06:56:00;100617.91;;;5.88;67.44
46756;BME280;32506;52.826;-1.192;2024-03-08T06:58:26;100623.88;;;5.90;67.26
46756;BME280;32506;52.826;-1.192;2024-03-08T07:00:51;100620.56;;;5.88;67.49
46756;BME280;32506;52.826;-1.192;2024-03-08T07:03:17;100617.75;;;5.90;67.55
46756;BME280;32506;52.826;-1.192;2024-03-08T07:06:01;100609.63;;;5.91;67.31
46756;BME280;32506;52.826;-1.192;2024-03-08T07:08:27;100607.16;;;5.90;67.11
46756;BME280;32506;52.826;-1.192;2024-03-08T07:10:54;100599.00;;;5.91;67.10
46756;BME280;32506;52.826;-1.192;2024-03-08T07:13:19;100597.97;;;5.92;67.00
46756;BME280;32506;52.826;-1.192;2024-03-08T07:15:45;100593.50;;;5.93;67.57
46756;BME280;32506;52.826;-1.192;2024-03-08T07:18:11;100594.31;;;5.93;67.49
46756;BME280;32506;52.826;-1.192;2024-03-08T07:20:40;100594.13;;;5.95;67.28
46756;BME280;32506;52.826;-1.192;2024-03-08T07:23:23;100581.91;;;5.94;67.47
46756;BME280;32506;52.826;-1.192;2024-03-08T07:26:08;100590.50;;;5.96;67.71
46756;BME280;32506;52.826;-1.192;2024-03-08T07:28:36;100593.13;;;5.96;68.06
46756;BME280;32506;52.826;-1.192;2024-03-08T07:31:07;100589.50;;;5.97;67.51
46756;BME280;32506;52.826;-1.192;2024-03-08T07:33:42;100584.84;;;5.99;67.76
46756;BME280;32506;52.826;-1.192;2024-03-08T07:36:08;100583.84;;;6.00;67.66
46756;BME280;32506;52.826;-1.192;2024-03-08T07:38:34;100584.50;;;6.02;67.71
46756;BME280;32506;52.826;-1.192;2024-03-08T07:41:00;100577.53;;;6.01;68.08
46756;BME280;32506;52.826;-1.192;2024-03-08T07:43:25;100576.53;;;6.02;67.74
46756;BME280;32506;52.826;-1.192;2024-03-08T07:45:51;100578.00;;;6.04;67.50
46756;BME280;32506;52.826;-1.192;2024-03-08T07:48:18;100576.16;;;6.05;67.82
46756;BME280;32506;52.826;-1.192;2024-03-08T07:50:45;100567.19;;;6.06;67.79
46756;BME280;32506;52.826;-1.192;2024-03-08T07:53:11;100575.78;;;6.08;67.96
46756;BME280;32506;52.826;-1.192;2024-03-08T07:55:40;100578.28;;;6.10;67.68
46756;BME280;32506;52.826;-1.192;2024-03-08T07:58:07;100582.38;;;6.12;67.72
46756;BME280;32506;52.826;-1.192;2024-03-08T08:00:36;100575.25;;;6.13;67.85
46756;BME280;32506;52.826;-1.192;2024-03-08T08:03:04;100575.88;;;6.15;68.00
46756;BME280;32506;52.826;-1.192;2024-03-08T08:05:33;100575.72;;;6.16;67.41
46756;BME280;32506;52.826;-1.192;2024-03-08T08:08:01;100571.84;;;6.19;67.93
46756;BME280;32506;52.826;-1.192;2024-03-08T08:10:37;100573.50;;;6.20;68.22
46756;BME280;32506;52.826;-1.192;2024-03-08T08:13:05;100570.66;;;6.21;68.36
46756;BME280;32506;52.826;-1.192;2024-03-08T08:15:31;100564.16;;;6.24;68.25
46756;BME280;32506;52.826;-1.192;2024-03-08T08:17:59;100558.66;;;6.26;67.99
46756;BME280;32506;52.826;-1.192;2024-03-08T08:20:25;100559.31;;;6.28;68.44
46756;BME280;32506;52.826;-1.192;2024-03-08T08:22:53;100554.47;;;6.31;68.02
46756;BME280;32506;52.826;-1.192;2024-03-08T08:25:20;100550.63;;;6.34;67.74
46756;BME280;32506;52.826;-1.192;2024-03-08T08:27:53;100546.59;;;6.38;67.10
46756;BME280;32506;52.826;-1.192;2024-03-08T08:30:19;100548.03;;;6.41;68.00
46756;BME280;32506;52.826;-1.192;2024-03-08T08:32:45;100546.66;;;6.45;68.02
46756;BME280;32506;52.826;-1.192;2024-03-08T08:35:12;100546.91;;;6.50;67.79
46756;BME280;32506;52.826;-1.192;2024-03-08T08:40:53;100534.34;;;6.59;67.49
46756;BME280;32506;52.826;-1.192;2024-03-08T08:43:19;100526.66;;;6.64;67.72
46756;BME280;32506;52.826;-1.192;2024-03-08T08:45:49;100533.03;;;6.69;67.57
46756;BME280;32506;52.826;-1.192;2024-03-08T08:48:21;100531.44;;;6.75;67.88
46756;BME280;32506;52.826;-1.192;2024-03-08T08:50:47;100529.69;;;6.82;67.70
46756;BME280;32506;52.826;-1.192;2024-03-08T08:53:15;100523.00;;;6.86;67.14
46756;BME280;32506;52.826;-1.192;2024-03-08T08:55:42;100524.06;;;6.92;67.15
46756;BME280;32506;52.826;-1.192;2024-03-08T08:58:10;100528.63;;;6.98;67.03
46756;BME280;32506;52.826;-1.192;2024-03-08T09:00:47;100522.53;;;7.04;66.88
46756;BME280;32506;52.826;-1.192;2024-03-08T09:03:15;100529.75;;;7.11;67.06
46756;BME280;32506;52.826;-1.192;2024-03-08T09:05:44;100516.53;;;7.17;66.86
46756;BME280;32506;52.826;-1.192;2024-03-08T09:08:17;100515.53;;;7.25;66.85
46756;BME280;32506;52.826;-1.192;2024-03-08T09:10:43;100521.56;;;7.34;66.54
46756;BME280;32506;52.826;-1.192;2024-03-08T09:13:12;100508.13;;;7.42;66.54
46756;BME280;32506;52.826;-1.192;2024-03-08T09:15:44;100511.25;;;7.52;66.67
46756;BME280;32506;52.826;-1.192;2024-03-08T09:18:16;100510.72;;;7.64;66.45
46756;BME280;32506;52.826;-1.192;2024-03-08T09:21:00;100509.34;;;7.75;66.65
46756;BME280;32506;52.826;-1.192;2024-03-08T09:23:31;100503.69;;;7.84;66.77
46756;BME280;32506;52.826;-1.192;2024-03-08T09:29:33;100503.81;;;8.11;66.33
46756;BME280;32506;52.826;-1.192;2024-03-08T09:32:25;100488.91;;;8.23;66.17
46756;BME280;32506;52.826;-1.192;2024-03-08T09:38:37;100484.31;;;8.52;66.20
46756;BME280;32506;52.826;-1.192;2024-03-08T09:41:03;100485.16;;;8.66;65.93
46756;BME280;32506;52.826;-1.192;2024-03-08T09:43:39;100470.22;;;8.79;64.20
46756;BME280;32506;52.826;-1.192;2024-03-08T09:46:08;100469.59;;;8.90;64.65
46756;BME280;32506;52.826;-1.192;2024-03-08T09:48:35;100466.53;;;9.00;64.37
46756;BME280;32506;52.826;-1.192;2024-03-08T09:51:04;100458.13;;;9.10;64.18
46756;BME280;32506;52.826;-1.192;2024-03-08T09:53:45;100460.16;;;9.21;64.60
46756;BME280;32506;52.826;-1.192;2024-03-08T09:56:14;100451.34;;;9.34;64.12
46756;BME280;32506;52.826;-1.192;2024-03-08T09:58:45;100444.09;;;9.48;64.40
46756;BME280;32506;52.826;-1.192;2024-03-08T10:01:47;100441.38;;;9.68;63.85
46756;BME280;32506;52.826;-1.192;2024-03-08T10:04:22;100445.84;;;9.87;63.96
46756;BME280;32506;52.826;-1.192;2024-03-08T10:06:47;100437.78;;;10.01;64.09
46756;BME280;32506;52.826;-1.192;2024-03-08T10:09:16;100437.91;;;10.19;64.85
46756;BME280;32506;52.826;-1.192;2024-03-08T10:11:42;100438.00;;;10.38;64.42
46756;BME280;32506;52.826;-1.192;2024-03-08T10:14:09;100434.84;;;10.54;64.28
46756;BME280;32506;52.826;-1.192;2024-03-08T10:16:36;100437.22;;;10.69;63.51
46756;BME280;32506;52.826;-1.192;2024-03-08T10:19:01;100430.50;;;10.85;63.19
46756;BME280;32506;52.826;-1.192;2024-03-08T10:21:32;100429.38;;;11.00;63.61
46756;BME280;32506;52.826;-1.192;2024-03-08T10:23:58;100428.19;;;11.14;62.62
46756;BME280;32506;52.826;-1.192;2024-03-08T10:26:24;100420.25;;;11.26;63.30
46756;BME280;32506;52.826;-1.192;2024-03-08T10:28:52;100423.25;;;11.36;63.17
46756;BME280;32506;52.826;-1.192;2024-03-08T10:31:20;100425.41;;;11.46;62.69
46756;BME280;32506;52.826;-1.192;2024-03-08T10:33:46;100417.06;;;11.54;61.45
46756;BME280;32506;52.826;-1.192;2024-03-08T10:36:13;100413.28;;;11.62;62.29
46756;BME280;32506;52.826;-1.192;2024-03-08T10:42:16;100406.28;;;11.80;62.04
46756;BME280;32506;52.826;-1.192;2024-03-08T10:45:06;100399.59;;;11.89;61.56
46756;BME280;32506;52.826;-1.192;2024-03-08T10:47:41;100392.44;;;12.01;60.29
46756;BME280;32506;52.826;-1.192;2024-03-08T10:50:19;100391.22;;;12.16;60.39
46756;BME280;32506;52.826;-1.192;2024-03-08T10:53:00;100388.34;;;12.29;60.52
46756;BME280;32506;52.826;-1.192;2024-03-08T10:55:33;100375.00;;;12.41;60.78
46756;BME280;32506;52.826;-1.192;2024-03-08T10:58:21;100375.81;;;12.53;59.83
46756;BME280;32506;52.826;-1.192;2024-03-08T11:07:12;100366.50;;;12.80;59.87
46756;BME280;32506;52.826;-1.192;2024-03-08T11:09:42;100344.13;;;12.86;60.08
46756;BME280;32506;52.826;-1.192;2024-03-08T11:12:28;100343.09;;;12.99;59.00
46756;BME280;32506;52.826;-1.192;2024-03-08T11:18:02;100342.91;;;13.29;57.86
46756;BME280;32506;52.826;-1.192;2024-03-08T11:20:27;100345.59;;;13.41;58.46
46756;BME280;32506;52.826;-1.192;2024-03-08T11:23:22;100334.34;;;13.56;58.71
46756;BME280;32506;52.826;-1.192;2024-03-08T11:25:50;100338.19;;;13.60;59.15
46756;BME280;32506;52.826;-1.192;2024-03-08T11:28:29;100327.56;;;13.65;58.27
46756;BME280;32506;52.826;-1.192;2024-03-08T11:33:27;100321.94;;;13.67;55.58
46756;BME280;32506;52.826;-1.192;2024-03-08T11:36:11;100328.38;;;13.66;54.02
46756;BME280;32506;52.826;-1.192;2024-03-08T11:38:43;100315.16;;;13.64;53.64
46756;BME280;32506;52.826;-1.192;2024-03-08T11:41:24;100316.72;;;13.60;52.88
46756;BME280;32506;52.826;-1.192;2024-03-08T11:44:02;100314.50;;;13.57;52.56
46756;BME280;32506;52.826;-1.192;2024-03-08T11:46:30;100310.91;;;13.51;51.59
46756;BME280;32506;52.826;-1.192;2024-03-08T11:48:56;100304.16;;;13.49;52.34
46756;BME280;32506;52.826;-1.192;2024-03-08T11:51:25;100303.00;;;13.45;51.56
46756;BME280;32506;52.826;-1.192;2024-03-08T11:54:10;100299.72;;;13.42;51.62
46756;BME280;32506;52.826;-1.192;2024-03-08T11:56:37;100299.63;;;13.37;50.81
46756;BME280;32506;52.826;-1.192;2024-03-08T11:59:05;100296.59;;;13.34;51.27
46756;BME280;32506;52.826;-1.192;2024-03-08T12:02:16;100290.38;;;13.33;50.41
46756;BME280;32506;52.826;-1.192;2024-03-08T12:05:00;100291.22;;;13.34;51.89
46756;BME280;32506;52.826;-1.192;2024-03-08T12:07:38;100282.34;;;13.33;51.60
46756;BME280;32506;52.826;-1.192;2024-03-08T12:10:18;100290.38;;;13.33;51.53
46756;BME280;32506;52.826;-1.192;2024-03-08T12:12:45;100276.75;;;13.35;50.65
46756;BME280;32506;52.826;-1.192;2024-03-08T12:15:40;100284.22;;;13.33;51.13
46756;BME280;32506;52.826;-1.192;2024-03-08T12:21:54;100273.47;;;13.33;50.84
46756;BME280;32506;52.826;-1.192;2024-03-08T12:24:27;100271.03;;;13.31;50.99
46756;BME280;32506;52.826;-1.192;2024-03-08T12:27:00;100265.31;;;13.27;50.77
46756;BME280;32506;52.826;-1.192;2024-03-08T12:29:27;100252.16;;;13.26;51.25
46756;BME280;32506;52.826;-1.192;2024-03-08T12:32:01;100260.69;;;13.23;50.51
46756;BME280;32506;52.826;-1.192;2024-03-08T12:34:30;100248.78;;;13.19;50.01
46756;BME280;32506;52.826;-1.192;2024-03-08T12:36:59;100248.44;;;13.15;49.66
46756;BME280;32506;52.826;-1.192;2024-03-08T12:39:35;100244.13;;;13.14;50.75
46756;BME280;32506;52.826;-1.192;2024-03-08T12:42:06;100236.56;;;13.11;50.41
46756;BME280;32506;52.826;-1.192;2024-03-08T12:44:34;100232.50;;;13.08;50.35
46756;BME280;32506;52.826;-1.192;2024-03-08T12:47:15;100239.38;;;13.04;50.65
46756;BME280;32506;52.826;-1.192;2024-03-08T12:49:41;100237.19;;;13.01;49.79
46756;BME280;32506;52.826;-1.192;2024-03-08T12:52:20;100237.63;;;12.98;49.80
46756;BME280;32506;52.826;-1.192;2024-03-08T12:54:51;100224.47;;;12.97;50.36
46756;BME280;32506;52.826;-1.192;2024-03-08T12:57:19;100224.72;;;12.95;50.58
46756;BME280;32506;52.826;-1.192;2024-03-08T12:59:45;100224.34;;;12.91;50.71
46756;BME280;32506;52.826;-1.192;2024-03-08T13:02:10;100214.69;;;12.90;50.71
46756;BME280;32506;52.826;-1.192;2024-03-08T13:04:39;100212.81;;;12.91;51.27
46756;BME280;32506;52.826;-1.192;2024-03-08T13:07:14;100213.38;;;12.93;50.80
46756;BME280;32506;52.826;-1.192;2024-03-08T13:09:46;100208.47;;;13.02;52.22
46756;BME280;32506;52.826;-1.192;2024-03-08T13:12:25;100198.03;;;13.17;54.19
46756;BME280;32506;52.826;-1.192;2024-03-08T13:14:59;100204.88;;;13.37;54.38
46756;BME280;32506;52.826;-1.192;2024-03-08T13:17:35;100200.50;;;13.48;52.18
46756;BME280;32506;52.826;-1.192;2024-03-08T13:20:11;100195.22;;;13.53;53.91
46756;BME280;32506;52.826;-1.192;2024-03-08T13:22:41;100182.84;;;13.52;52.13
46756;BME280;32506;52.826;-1.192;2024-03-08T13:25:12;100187.66;;;13.50;51.16
46756;BME280;32506;52.826;-1.192;2024-03-08T13:27:41;100183.00;;;13.45;50.48
46756;BME280;32506;52.826;-1.192;2024-03-08T13:30:26;100176.34;;;13.48;51.13